Time;durP1;ratioP1;P1;durP2;ratioP2;P2;SDS_P1;SDS_P2;PMS_P1;PMS_P2;Temp;Humidity;BMP_temperature;BMP_pressure;BME280_temperature;BME280_humidity;BME280_pressure;Samples;Min_cycle;Max_cycle;Signal;HPM_P1;HPM_P2
2021/08/07 00:00:08;;;;;;;2.90;2.70;;;18.90;1.00;;;;;;5070414;28;20195;-56
2021/08/07 00:02:34;;;;;;;3.43;3.10;;;18.90;1.00;;;;;;5049864;28;20232;-55
2021/08/07 00:05:00;;;;;;;4.53;3.43;;;18.80;1.00;;;;;;5069981;28;20850;-55
2021/08/07 00:07:27;;;;;;;4.17;3.77;;;18.70;1.00;;;;;;5069138;28;20206;-55
2021/08/07 00:09:56;;;;;;;4.03;3.63;;;18.70;1.00;;;;;;5067290;28;20179;-55
2021/08/07 00:12:21;;;;;;;4.60;4.20;;;18.60;1.00;;;;;;5072747;28;20468;-56
2021/08/07 00:14:47;;;;;;;3.60;3.10;;;18.60;1.00;;;;;;5077636;28;20451;-55
2021/08/07 00:17:12;;;;;;;3.40;3.10;;;18.60;1.00;;;;;;5069394;28;20183;-56
2021/08/07 00:19:38;;;;;;;3.50;3.30;;;18.50;1.00;;;;;;5067384;28;20187;-55
2021/08/07 00:22:04;;;;;;;5.00;3.70;;;18.40;1.00;;;;;;5067709;28;20251;-54
2021/08/07 00:24:30;;;;;;;4.53;3.70;;;18.40;1.00;;;;;;5071495;28;20219;-54
2021/08/07 00:26:55;;;;;;;10.37;7.27;;;18.30;1.00;;;;;;5072737;28;20451;-55
2021/08/07 00:29:21;;;;;;;3.70;3.20;;;18.30;1.00;;;;;;5073836;28;20202;-56
2021/08/07 00:31:46;;;;;;;5.40;3.30;;;18.30;1.00;;;;;;5073733;28;20199;-55
2021/08/07 00:34:12;;;;;;;3.90;3.20;;;18.40;1.00;;;;;;5070890;28;20183;-56
2021/08/07 00:36:38;;;;;;;7.83;3.73;;;18.40;1.00;;;;;;5073403;28;20320;-56
2021/08/07 00:39:04;;;;;;;3.83;2.50;;;18.30;1.00;;;;;;5071471;28;20233;-55
2021/08/07 00:41:29;;;;;;;3.20;2.60;;;18.40;1.00;;;;;;5073976;28;20180;-56
2021/08/07 00:43:55;;;;;;;2.57;2.37;;;18.30;1.00;;;;;;5072424;28;20224;-56
2021/08/07 00:46:20;;;;;;;2.97;2.70;;;18.30;1.00;;;;;;5069129;28;20782;-55
2021/08/07 00:48:46;;;;;;;2.90;2.70;;;18.10;1.00;;;;;;5071830;28;20273;-54
2021/08/07 00:51:12;;;;;;;2.97;2.77;;;18.30;1.00;;;;;;5073419;28;20187;-55
2021/08/07 00:53:37;;;;;;;5.07;2.87;;;18.30;1.00;;;;;;5069339;28;20237;-54
2021/08/07 00:56:06;;;;;;;3.03;2.77;;;18.30;1.00;;;;;;5071673;28;20780;-55
2021/08/07 00:58:31;;;;;;;3.00;2.80;;;18.20;1.00;;;;;;5071021;28;20195;-55
2021/08/07 01:00:57;;;;;;;3.00;2.40;;;18.10;1.00;;;;;;5073492;28;20416;-56
2021/08/07 01:03:34;;;;;;;2.93;2.73;;;18.10;1.00;;;;;;5073245;28;20205;-54
2021/08/07 01:06:36;;;;;;;3.03;2.57;;;18.10;1.00;;;;;;5072418;28;20202;-57
2021/08/07 01:09:11;;;;;;;3.53;2.80;;;18.10;1.00;;;;;;5070293;28;20540;-56
2021/08/07 01:11:50;;;;;;;3.60;3.30;;;18.10;1.00;;;;;;5073147;28;20690;-55
2021/08/07 01:14:21;;;;;;;3.50;3.20;;;18.10;1.00;;;;;;5053080;28;21028;-55
2021/08/07 01:16:49;;;;;;;3.60;3.30;;;18.00;1.00;;;;;;5071163;28;20770;-55
2021/08/07 01:19:17;;;;;;;2.83;2.63;;;18.00;1.00;;;;;;5072693;28;20704;-55
2021/08/07 01:21:49;;;;;;;3.70;2.80;;;18.00;1.00;;;;;;5073131;28;21031;-55
2021/08/07 01:24:22;;;;;;;3.13;2.93;;;18.00;1.00;;;;;;5069449;28;20584;-56
2021/08/07 01:26:51;;;;;;;3.03;2.70;;;18.00;1.00;;;;;;5072039;28;20614;-55
2021/08/07 01:29:18;;;;;;;3.40;2.77;;;18.00;1.00;;;;;;5068946;28;20488;-55
2021/08/07 01:31:49;;;;;;;4.07;2.67;;;17.90;1.00;;;;;;5071345;28;20438;-55
2021/08/07 01:34:16;;;;;;;3.03;2.50;;;17.80;1.00;;;;;;5070471;28;20444;-55
2021/08/07 01:36:43;;;;;;;3.63;2.47;;;17.80;1.00;;;;;;5072712;28;20416;-56
2021/08/07 01:39:09;;;;;;;3.80;2.47;;;17.90;1.00;;;;;;5069187;28;20477;-55
2021/08/07 01:41:35;;;;;;;4.20;3.17;;;17.80;1.00;;;;;;5072695;28;20448;-55
2021/08/07 01:44:01;;;;;;;2.80;2.60;;;17.80;1.00;;;;;;5072485;28;20184;-55
2021/08/07 01:46:33;;;;;;;2.70;2.50;;;17.70;1.00;;;;;;5071008;28;20487;-56
2021/08/07 01:49:10;;;;;;;4.10;3.20;;;17.80;1.00;;;;;;5071559;28;20203;-56
2021/08/07 01:51:53;;;;;;;3.00;2.70;;;17.80;1.00;;;;;;5054244;28;20441;-56
2021/08/07 01:54:34;;;;;;;3.73;2.73;;;17.80;1.00;;;;;;5070604;28;20442;-55
2021/08/07 01:57:04;;;;;;;3.20;2.73;;;17.70;1.00;;;;;;5071903;28;20438;-56
2021/08/07 01:59:34;;;;;;;3.67;2.70;;;17.70;1.00;;;;;;5072147;28;20452;-55
2021/08/07 02:02:00;;;;;;;3.00;2.70;;;17.70;1.00;;;;;;5068819;28;20457;-55
2021/08/07 02:04:27;;;;;;;2.80;2.60;;;17.70;1.00;;;;;;5072312;28;20447;-54
2021/08/07 02:06:55;;;;;;;3.37;2.60;;;17.60;1.00;;;;;;5068503;28;20438;-56
2021/08/07 02:09:20;;;;;;;2.87;2.57;;;17.50;1.00;;;;;;5072076;28;20465;-56
2021/08/07 02:11:47;;;;;;;5.10;2.90;;;17.60;1.00;;;;;;5071023;28;20445;-55
2021/08/07 02:14:15;;;;;;;3.60;3.07;;;17.50;1.00;;;;;;5071484;28;20176;-56
2021/08/07 02:16:43;;;;;;;2.97;2.70;;;17.40;1.00;;;;;;5071843;28;20431;-56
2021/08/07 02:19:09;;;;;;;3.13;2.83;;;17.50;1.00;;;;;;5071393;28;20445;-55
2021/08/07 02:21:36;;;;;;;4.30;2.73;;;17.30;1.00;;;;;;5071951;28;20472;-56
2021/08/07 02:24:02;;;;;;;6.13;2.37;;;17.40;1.00;;;;;;5062809;28;20515;-54
2021/08/07 02:26:29;;;;;;;2.70;2.50;;;17.40;1.00;;;;;;5069684;28;20541;-55
2021/08/07 02:28:54;;;;;;;3.60;2.27;;;17.50;1.00;;;;;;5070603;28;20215;-56
2021/08/07 02:31:20;;;;;;;2.37;2.17;;;17.50;1.00;;;;;;5071603;28;20449;-55
2021/08/07 02:33:47;;;;;;;2.70;2.50;;;17.50;1.00;;;;;;5071332;28;20262;-56
2021/08/07 02:36:14;;;;;;;3.33;2.47;;;17.40;1.00;;;;;;5071088;28;20499;-56
2021/08/07 02:38:40;;;;;;;3.90;2.47;;;17.40;1.00;;;;;;5071272;28;20412;-54
2021/08/07 02:41:07;;;;;;;2.73;2.53;;;17.30;1.00;;;;;;5068165;28;20420;-55
2021/08/07 02:43:33;;;;;;;1.80;1.70;;;17.30;1.00;;;;;;5067772;28;20441;-55
2021/08/07 02:45:59;;;;;;;2.50;2.30;;;17.40;1.00;;;;;;5071292;28;20962;-54
2021/08/07 02:48:27;;;;;;;2.97;2.30;;;17.30;1.00;;;;;;5070554;28;20981;-54
2021/08/07 02:50:53;;;;;;;3.07;2.77;;;17.30;1.00;;;;;;5068580;28;20464;-55
2021/08/07 02:53:20;;;;;;;2.87;2.10;;;17.20;1.00;;;;;;5071379;28;22124;-53
2021/08/07 02:55:45;;;;;;;2.83;2.30;;;17.30;1.00;;;;;;5069942;28;21015;-55
2021/08/07 02:58:11;;;;;;;2.50;2.30;;;17.30;1.00;;;;;;5070917;28;20521;-55
2021/08/07 03:00:38;;;;;;;3.10;2.13;;;17.30;1.00;;;;;;5051995;28;20199;-56
2021/08/07 03:03:04;;;;;;;2.37;2.17;;;17.30;1.00;;;;;;5054542;28;20449;-55
2021/08/07 03:05:30;;;;;;;2.47;2.27;;;17.20;1.00;;;;;;5074280;28;20970;-55
2021/08/07 03:07:55;;;;;;;3.07;2.40;;;17.30;1.00;;;;;;5067232;28;20473;-55
2021/08/07 03:10:21;;;;;;;2.50;2.30;;;17.20;1.00;;;;;;5068657;28;20192;-55
2021/08/07 03:12:49;;;;;;;3.53;2.33;;;17.10;1.00;;;;;;5070539;28;20184;-55
2021/08/07 03:15:16;;;;;;;2.83;2.47;;;17.70;1.00;;;;;;5070584;28;20422;-56
2021/08/07 03:17:41;;;;;;;3.73;1.93;;;17.10;1.00;;;;;;5070695;28;20499;-56
2021/08/07 03:20:08;;;;;;;2.23;2.03;;;17.20;1.00;;;;;;5065886;28;20503;-55
2021/08/07 03:22:34;;;;;;;3.50;2.40;;;17.20;1.00;;;;;;5068253;28;20198;-56
2021/08/07 03:25:00;;;;;;;2.93;2.67;;;17.20;1.00;;;;;;5065649;28;20525;-56
2021/08/07 03:27:26;;;;;;;2.67;2.33;;;17.20;1.00;;;;;;5074507;28;20516;-54
2021/08/07 03:29:51;;;;;;;4.23;2.40;;;17.20;1.00;;;;;;5069416;28;20211;-55
2021/08/07 03:32:17;;;;;;;2.80;2.20;;;17.20;1.00;;;;;;5070563;28;20257;-55
2021/08/07 03:34:43;;;;;;;2.57;2.37;;;17.20;1.00;;;;;;5070572;28;20266;-55
2021/08/07 03:37:10;;;;;;;5.27;2.40;;;14.20;1.00;;;;;;5067732;28;20480;-55
2021/08/07 03:39:35;;;;;;;2.33;2.13;;;17.20;1.00;;;;;;5070532;28;20454;-56
2021/08/07 03:42:01;;;;;;;2.30;2.10;;;17.20;1.00;;;;;;5068931;28;20420;-55
2021/08/07 03:44:26;;;;;;;3.20;2.30;;;17.20;1.00;;;;;;5052405;28;20198;-56
2021/08/07 03:46:52;;;;;;;3.50;2.10;;;17.20;1.00;;;;;;5070241;28;20310;-55
2021/08/07 03:49:17;;;;;;;1.67;1.57;;;17.10;1.00;;;;;;5070092;28;20224;-56
2021/08/07 03:51:43;;;;;;;5.00;2.47;;;17.20;1.00;;;;;;5070322;28;20206;-55
2021/08/07 03:54:08;;;;;;;1.93;1.83;;;17.20;1.00;;;;;;5070249;28;20540;-56
2021/08/07 03:56:34;;;;;;;2.00;1.90;;;17.20;1.00;;;;;;5067252;28;20210;-56
2021/08/07 03:59:00;;;;;;;2.50;2.30;;;17.20;1.00;;;;;;5069148;28;20299;-56
2021/08/07 04:01:25;;;;;;;2.60;2.10;;;17.20;1.00;;;;;;5069965;28;20203;-55
2021/08/07 04:03:50;;;;;;;3.17;2.30;;;17.20;1.00;;;;;;5069946;28;20581;-55
2021/08/07 04:06:16;;;;;;;2.63;2.43;;;17.30;1.00;;;;;;5068555;28;20228;-55
2021/08/07 04:08:42;;;;;;;2.10;1.83;;;17.30;1.00;;;;;;5067781;28;20203;-55
2021/08/07 04:11:07;;;;;;;2.40;2.20;;;17.40;1.00;;;;;;5069982;28;20653;-54
2021/08/07 04:13:33;;;;;;;2.63;2.43;;;17.40;1.00;;;;;;5069462;28;20178;-56
2021/08/07 04:15:58;;;;;;;4.23;2.30;;;17.30;1.00;;;;;;5070103;28;20198;-55
2021/08/07 04:18:24;;;;;;;2.50;2.30;;;17.20;1.00;;;;;;5069915;28;20175;-55
2021/08/07 04:20:52;;;;;;;2.10;1.80;;;17.30;1.00;;;;;;5069621;28;20179;-54
2021/08/07 04:23:18;;;;;;;2.23;2.03;;;17.40;1.00;;;;;;5070514;28;20187;-56
2021/08/07 04:25:43;;;;;;;2.37;2.20;;;17.40;1.00;;;;;;5063711;28;20453;-55
2021/08/07 04:28:09;;;;;;;1.93;1.83;;;17.50;1.00;;;;;;5064389;28;20211;-54
2021/08/07 04:30:34;;;;;;;3.10;2.20;;;17.50;1.00;;;;;;5069125;28;20188;-56
2021/08/07 04:33:00;;;;;;;2.73;2.40;;;17.50;1.00;;;;;;5069458;28;20510;-55
2021/08/07 04:35:26;;;;;;;2.50;1.93;;;17.60;1.00;;;;;;5065788;28;20190;-55
2021/08/07 04:37:53;;;;;;;3.73;2.00;;;17.60;1.00;;;;;;5069867;28;20645;-55
2021/08/07 04:40:21;;;;;;;2.10;2.00;;;17.70;1.00;;;;;;5069275;28;20258;-55
2021/08/07 04:42:47;;;;;;;2.30;2.10;;;17.70;1.00;;;;;;5052239;28;20419;-54
2021/08/07 04:45:13;;;;;;;2.60;1.93;;;17.90;1.00;;;;;;5069555;28;21005;-56
2021/08/07 04:47:57;;;;;;;3.10;2.20;;;17.90;1.00;;;;;;5050812;28;20230;-55
2021/08/07 04:50:25;;;;;;;1.63;1.40;;;18.00;1.00;;;;;;5065181;28;20420;-55
2021/08/07 04:52:52;;;;;;;2.60;1.90;;;18.00;1.00;;;;;;5068998;28;20441;-57
2021/08/07 04:55:18;;;;;;;2.87;2.10;;;18.00;1.00;;;;;;5068173;28;20494;-54
2021/08/07 04:57:44;;;;;;;2.37;1.80;;;18.10;1.00;;;;;;5069593;28;20445;-55
2021/08/07 05:00:10;;;;;;;2.47;2.03;;;18.20;1.00;;;;;;5066927;28;20183;-55
2021/08/07 05:02:36;;;;;;;2.30;2.13;;;18.30;1.00;;;;;;5068921;28;20291;-55
2021/08/07 05:05:02;;;;;;;2.83;2.03;;;18.30;1.00;;;;;;5069655;28;20532;-54
2021/08/07 05:07:30;;;;;;;1.60;1.50;;;18.40;1.00;;;;;;5069588;28;20266;-54
2021/08/07 05:09:56;;;;;;;3.17;1.90;;;18.40;1.00;;;;;;5073129;28;20574;-54
2021/08/07 05:12:23;;;;;;;2.23;1.67;;;18.40;1.00;;;;;;5073049;28;20437;-56
2021/08/07 05:14:48;;;;;;;2.57;1.70;;;18.50;1.00;;;;;;5072913;28;20434;-55
2021/08/07 05:17:14;;;;;;;1.70;1.60;;;18.60;1.00;;;;;;5068863;28;20464;-55
2021/08/07 05:19:40;;;;;;;3.53;2.13;;;18.60;1.00;;;;;;5067959;28;20187;-56
2021/08/07 05:22:05;;;;;;;1.53;1.43;;;18.70;1.00;;;;;;5072878;28;20183;-56
2021/08/07 05:24:31;;;;;;;2.20;2.00;;;18.70;1.00;;;;;;5072673;28;20217;-56
2021/08/07 05:26:56;;;;;;;3.13;1.87;;;18.80;1.00;;;;;;5072331;28;20786;-56
2021/08/07 05:29:22;;;;;;;2.83;2.00;;;18.90;1.00;;;;;;5072846;28;20195;-56
2021/08/07 05:31:47;;;;;;;2.13;2.03;;;19.10;1.00;;;;;;5072871;28;20181;-56
2021/08/07 05:34:13;;;;;;;1.93;1.80;;;19.20;1.00;;;;;;5072442;28;20199;-56
2021/08/07 05:36:38;;;;;;;4.10;1.93;;;19.40;1.00;;;;;;5072045;28;20426;-56
2021/08/07 05:39:04;;;;;;;2.13;1.77;;;19.60;1.00;;;;;;5072881;28;20714;-56
2021/08/07 05:41:29;;;;;;;2.27;1.70;;;19.80;1.00;;;;;;5072246;28;20664;-55
2021/08/07 05:43:55;;;;;;;1.80;1.47;;;19.90;1.00;;;;;;5072570;28;20197;-56
2021/08/07 05:46:20;;;;;;;3.27;1.90;;;20.10;1.00;;;;;;5071807;28;20285;-56
2021/08/07 05:48:46;;;;;;;3.40;1.90;;;20.30;1.00;;;;;;5053223;28;20206;-55
2021/08/07 05:51:12;;;;;;;4.43;1.60;;;20.40;1.00;;;;;;5071990;28;20185;-55
2021/08/07 05:53:37;;;;;;;2.00;1.60;;;20.50;1.00;;;;;;5072170;28;20182;-55
2021/08/07 05:56:06;;;;;;;1.70;1.60;;;20.70;1.00;;;;;;5072759;28;20221;-55
2021/08/07 05:58:37;;;;;;;1.77;1.60;;;20.80;1.00;;;;;;5071945;28;20241;-56
2021/08/07 06:01:03;;;;;;;1.80;1.70;;;20.80;1.00;;;;;;5070890;28;20451;-55
2021/08/07 06:03:29;;;;;;;1.47;1.37;;;20.90;1.00;;;;;;5053732;28;20421;-56
2021/08/07 06:05:54;;;;;;;2.80;1.60;;;20.90;1.00;;;;;;5071835;28;20552;-54
2021/08/07 06:08:20;;;;;;;1.83;1.20;;;21.00;1.00;;;;;;5071916;28;20203;-56
2021/08/07 06:10:45;;;;;;;1.80;1.70;;;21.00;1.00;;;;;;5071504;28;20190;-55
2021/08/07 06:13:11;;;;;;;2.07;1.50;;;21.20;1.00;;;;;;5071757;28;20253;-56
2021/08/07 06:15:37;;;;;;;1.60;1.50;;;21.30;1.00;;;;;;5071847;28;20211;-56
2021/08/07 06:18:02;;;;;;;1.80;1.67;;;21.40;1.00;;;;;;5070337;28;20232;-55
2021/08/07 06:20:28;;;;;;;5.90;1.77;;;21.50;1.00;;;;;;5079757;28;20192;-55
2021/08/07 06:22:54;;;;;;;1.20;1.10;;;21.50;1.00;;;;;;5071538;28;20671;-57
2021/08/07 06:25:20;;;;;;;4.73;1.50;;;21.80;1.00;;;;;;5071880;28;20171;-55
2021/08/07 06:27:52;;;;;;;1.70;1.27;;;21.90;1.00;;;;;;5071206;28;20194;-56
2021/08/07 06:30:17;;;;;;;4.30;1.27;;;22.10;1.00;;;;;;5071824;28;20212;-55
2021/08/07 06:32:43;;;;;;;3.00;1.40;;;22.10;1.00;;;;;;5071183;28;20938;-56
2021/08/07 06:35:09;;;;;;;1.83;1.10;;;22.30;1.00;;;;;;5070891;28;20504;-55
2021/08/07 06:37:34;;;;;;;3.60;1.10;;;22.40;1.00;;;;;;5071742;28;20174;-55
2021/08/07 06:40:00;;;;;;;3.10;1.40;;;22.40;1.00;;;;;;5071326;28;20438;-56
2021/08/07 06:42:25;;;;;;;1.50;1.40;;;22.40;1.00;;;;;;5070346;28;20171;-56
2021/08/07 06:44:51;;;;;;;1.57;1.00;;;22.60;1.00;;;;;;5071354;28;20269;-55
2021/08/07 06:47:17;;;;;;;3.10;1.30;;;22.40;1.00;;;;;;5071123;28;20370;-55
2021/08/07 06:49:42;;;;;;;1.80;0.93;;;22.50;1.00;;;;;;5071064;28;20315;-55
2021/08/07 06:52:08;;;;;;;2.10;1.20;;;22.50;1.00;;;;;;5070738;28;20192;-57
2021/08/07 06:54:34;;;;;;;3.40;1.30;;;22.60;1.00;;;;;;5070901;28;20186;-54
2021/08/07 06:57:00;;;;;;;1.30;1.20;;;23.00;1.00;;;;;;5072657;28;20233;-55
2021/08/07 06:59:25;;;;;;;2.70;1.00;;;22.90;1.00;;;;;;5068573;28;20455;-57
2021/08/07 07:01:51;;;;;;;2.70;1.63;;;23.10;1.00;;;;;;5068020;28;20198;-56
2021/08/07 07:04:17;;;;;;;1.30;1.20;;;23.30;1.00;;;;;;5068934;28;20244;-56
2021/08/07 07:06:42;;;;;;;1.33;1.20;;;23.30;1.00;;;;;;5036125;28;20416;-56
2021/08/07 07:09:08;;;;;;;1.37;1.27;;;23.40;1.00;;;;;;5070574;28;20592;-55
2021/08/07 07:11:33;;;;;;;1.40;1.10;;;23.60;1.00;;;;;;5071313;28;20177;-57
2021/08/07 07:13:59;;;;;;;4.50;1.10;;;23.70;1.00;;;;;;5070127;28;20188;-57
2021/08/07 07:16:24;;;;;;;1.20;1.10;;;23.90;1.00;;;;;;5068164;28;20838;-57
2021/08/07 07:18:50;;;;;;;2.80;1.00;;;24.30;1.00;;;;;;5071666;28;20221;-56
2021/08/07 07:21:15;;;;;;;1.40;1.00;;;24.40;1.00;;;;;;5070866;28;20225;-56
2021/08/07 07:23:41;;;;;;;1.33;1.23;;;24.20;1.00;;;;;;5071009;28;20209;-55
2021/08/07 07:26:06;;;;;;;1.57;1.20;;;24.20;1.00;;;;;;5070958;28;20179;-57
2021/08/07 07:28:32;;;;;;;2.20;1.13;;;24.20;1.00;;;;;;5070034;28;20222;-57
2021/08/07 07:30:57;;;;;;;1.43;1.00;;;24.20;1.00;;;;;;5070118;28;20188;-57
2021/08/07 07:33:23;;;;;;;1.10;1.00;;;24.10;1.00;;;;;;5070454;28;20259;-56
2021/08/07 07:35:48;;;;;;;1.50;1.20;;;24.10;1.00;;;;;;5070513;28;20183;-56
2021/08/07 07:38:14;;;;;;;3.43;1.50;;;24.30;1.00;;;;;;5071826;28;20670;-55
2021/08/07 07:40:40;;;;;;;1.57;1.00;;;24.30;1.00;;;;;;5072791;28;20192;-55
2021/08/07 07:43:05;;;;;;;1.90;1.07;;;24.30;1.00;;;;;;5069413;28;20234;-55
2021/08/07 07:45:31;;;;;;;1.50;0.70;;;24.00;1.00;;;;;;5070292;28;20236;-55
2021/08/07 07:47:57;;;;;;;1.30;1.20;;;24.00;1.00;;;;;;5069993;28;20241;-55
2021/08/07 07:50:23;;;;;;;1.57;1.00;;;24.00;1.00;;;;;;5070572;28;20447;-55
2021/08/07 07:52:49;;;;;;;2.33;1.10;;;24.00;1.00;;;;;;5070697;28;20392;-55
2021/08/07 07:55:14;;;;;;;1.57;0.90;;;24.20;1.00;;;;;;5070438;28;20171;-57
2021/08/07 07:57:40;;;;;;;1.10;1.00;;;24.30;1.00;;;;;;5052642;28;20525;-56
2021/08/07 08:00:07;;;;;;;2.03;1.00;;;24.10;1.00;;;;;;5070331;28;20574;-58
2021/08/07 08:02:32;;;;;;;1.77;1.10;;;24.00;1.00;;;;;;5070193;28;20640;-55
2021/08/07 08:04:58;;;;;;;1.10;1.00;;;24.10;1.00;;;;;;5070144;28;20413;-57
2021/08/07 08:07:23;;;;;;;1.33;0.83;;;24.20;1.00;;;;;;5070487;28;20222;-55
2021/08/07 08:09:49;;;;;;;1.10;1.00;;;24.10;1.00;;;;;;5070457;28;20278;-56
2021/08/07 08:12:14;;;;;;;1.10;0.80;;;24.10;1.00;;;;;;5052235;28;20346;-56
2021/08/07 08:14:40;;;;;;;2.37;1.13;;;24.30;1.00;;;;;;5070534;28;20179;-55
2021/08/07 08:17:05;;;;;;;2.40;1.10;;;24.30;1.00;;;;;;5086141;28;20221;-57
2021/08/07 08:19:31;;;;;;;1.00;0.90;;;24.80;1.00;;;;;;5072351;28;20280;-55
2021/08/07 08:21:57;;;;;;;1.37;0.90;;;25.20;1.00;;;;;;5079354;28;20192;-57
2021/08/07 08:24:22;;;;;;;2.50;1.10;;;25.30;1.00;;;;;;5070392;28;20578;-56
2021/08/07 08:26:48;;;;;;;1.30;0.83;;;24.90;1.00;;;;;;5088623;28;20256;-58
2021/08/07 08:29:16;;;;;;;3.23;1.10;;;24.90;1.00;;;;;;5090489;28;20210;-57
2021/08/07 08:31:42;;;;;;;1.53;1.23;;;25.00;1.00;;;;;;5090223;28;20409;-56
2021/08/07 08:34:08;;;;;;;1.07;0.67;;;25.00;1.00;;;;;;5073220;28;20442;-57
2021/08/07 08:36:33;;;;;;;2.50;1.10;;;25.00;1.00;;;;;;5070270;28;20629;-55
2021/08/07 08:38:59;;;;;;;0.97;0.87;;;25.00;1.00;;;;;;5070386;28;20215;-56
2021/08/07 08:41:25;;;;;;;1.60;1.20;;;25.00;1.00;;;;;;5071251;28;20201;-57
2021/08/07 08:43:55;;;;;;;1.17;0.97;;;25.00;1.00;;;;;;5074177;28;20267;-56
2021/08/07 08:46:21;;;;;;;1.00;0.60;;;25.40;1.00;;;;;;5073742;28;20485;-55
2021/08/07 08:48:47;;;;;;;0.83;0.80;;;25.60;1.00;;;;;;5076962;28;20468;-56
2021/08/07 08:51:14;;;;;;;1.30;1.10;;;25.90;1.00;;;;;;5093967;28;20185;-56
2021/08/07 08:53:40;;;;;;;1.90;0.97;;;26.20;1.00;;;;;;5093874;28;20652;-56
2021/08/07 08:56:07;;;;;;;0.97;0.87;;;26.20;1.00;;;;;;5056293;28;20412;-57
2021/08/07 08:58:35;;;;;;;0.83;0.70;;;26.20;1.00;;;;;;5073542;28;20440;-57
2021/08/07 09:01:03;;;;;;;1.57;0.90;;;26.30;1.00;;;;;;5081026;28;20468;-57
2021/08/07 09:03:29;;;;;;;1.33;0.90;;;26.50;1.00;;;;;;5080162;28;20451;-58
2021/08/07 09:05:54;;;;;;;1.03;0.70;;;26.50;1.00;;;;;;5073714;28;20442;-57
2021/08/07 09:08:20;;;;;;;1.90;1.10;;;26.40;1.00;;;;;;5080240;28;20246;-56
2021/08/07 09:10:46;;;;;;;1.30;0.80;;;26.50;1.00;;;;;;5093610;28;20179;-58
2021/08/07 09:13:20;;;;;;;0.80;0.80;;;26.60;1.00;;;;;;5094025;28;20267;-57
2021/08/07 09:15:46;;;;;;;1.00;0.70;;;26.80;1.00;;;;;;5093783;28;20456;-56
2021/08/07 09:18:19;;;;;;;1.90;1.00;;;26.90;1.00;;;;;;5075414;28;20531;-56
2021/08/07 09:20:47;;;;;;;2.10;0.90;;;27.20;1.00;;;;;;5093754;28;20221;-56
2021/08/07 09:23:14;;;;;;;0.93;0.70;;;27.20;1.00;;;;;;5085171;28;20528;-57
2021/08/07 09:25:42;;;;;;;1.30;0.97;;;27.40;1.00;;;;;;5073071;28;20822;-56
2021/08/07 09:28:08;;;;;;;0.93;0.83;;;27.60;1.00;;;;;;5073231;28;20915;-57
2021/08/07 09:30:37;;;;;;;1.20;0.70;;;27.60;1.00;;;;;;5073274;28;20528;-55
2021/08/07 09:33:08;;;;;;;0.90;0.63;;;27.60;1.00;;;;;;5073081;28;20445;-58
2021/08/07 09:35:39;;;;;;;1.33;0.73;;;27.60;1.00;;;;;;5073050;28;20553;-57
2021/08/07 09:38:23;;;;;;;0.90;0.60;;;27.20;1.00;;;;;;5073269;28;20433;-56
2021/08/07 09:41:05;;;;;;;0.87;0.83;;;26.80;1.00;;;;;;5072877;28;20989;-57
2021/08/07 09:43:40;;;;;;;1.00;0.83;;;26.80;1.00;;;;;;5073067;28;20837;-58
2021/08/07 09:46:08;;;;;;;1.30;0.80;;;27.00;1.00;;;;;;5072817;28;20973;-57
2021/08/07 09:48:43;;;;;;;3.97;0.77;;;27.00;1.00;;;;;;5072669;28;20453;-57
2021/08/07 09:51:19;;;;;;;1.50;0.90;;;27.20;1.00;;;;;;5054358;28;20787;-57
2021/08/07 09:53:58;;;;;;;2.50;0.60;;;27.10;1.00;;;;;;5071193;28;20477;-59
2021/08/07 09:56:23;;;;;;;0.83;0.80;;;27.20;1.00;;;;;;5072852;28;20408;-57
2021/08/07 09:58:49;;;;;;;1.70;0.67;;;27.40;1.00;;;;;;5072502;28;20423;-58
2021/08/07 10:01:28;;;;;;;1.00;0.90;;;27.70;1.00;;;;;;5078995;28;20179;-58
2021/08/07 10:04:04;;;;;;;0.60;0.60;;;27.60;1.00;;;;;;5092423;28;20187;-57
2021/08/07 10:06:30;;;;;;;1.10;0.90;;;27.60;1.00;;;;;;5092614;28;20417;-58
2021/08/07 10:08:55;;;;;;;0.87;0.77;;;27.70;1.00;;;;;;5092810;28;20528;-58
2021/08/07 10:11:25;;;;;;;1.20;0.80;;;28.00;1.00;;;;;;5093279;28;20757;-58
2021/08/07 10:13:51;;;;;;;1.20;0.90;;;28.10;1.00;;;;;;5055979;28;20243;-57
2021/08/07 10:16:17;;;;;;;1.27;1.10;;;28.20;1.00;;;;;;5078882;28;20877;-56
2021/08/07 10:18:45;;;;;;;4.90;0.90;;;28.20;1.00;;;;;;5092711;28;20183;-58
2021/08/07 10:21:11;;;;;;;0.70;0.63;;;28.10;1.00;;;;;;5087502;28;20279;-58
2021/08/07 10:23:40;;;;;;;1.10;0.80;;;28.30;1.00;;;;;;5074847;28;20482;-58
2021/08/07 10:26:11;;;;;;;2.33;1.00;;;28.30;1.00;;;;;;5093029;28;20490;-58
2021/08/07 10:28:43;;;;;;;1.60;1.30;;;28.20;1.00;;;;;;5092881;28;20909;-57
2021/08/07 10:31:12;;;;;;;2.40;0.90;;;28.40;1.00;;;;;;5092411;28;20421;-57
2021/08/07 10:33:42;;;;;;;1.53;0.90;;;28.80;1.00;;;;;;5093027;28;20399;-58
2021/08/07 10:36:08;;;;;;;1.00;0.90;;;29.20;1.00;;;;;;5092938;28;20816;-57
2021/08/07 10:38:36;;;;;;;1.13;0.80;;;29.50;1.00;;;;;;5093108;28;20524;-57
2021/08/07 10:41:02;;;;;;;2.40;0.93;;;29.70;1.00;;;;;;5072918;28;20236;-56
2021/08/07 10:43:32;;;;;;;1.00;0.90;;;29.30;1.00;;;;;;5072412;28;20429;-56
2021/08/07 10:45:59;;;;;;;1.47;0.97;;;29.00;1.00;;;;;;5072395;28;20808;-56
2021/08/07 10:48:44;;;;;;;1.00;0.80;;;28.80;1.00;;;;;;5072112;28;20496;-57
2021/08/07 10:51:22;;;;;;;0.77;0.67;;;29.20;1.00;;;;;;5072133;28;20440;-56
2021/08/07 10:54:00;;;;;;;1.30;0.97;;;28.90;1.00;;;;;;5084569;28;20415;-56
2021/08/07 10:56:33;;;;;;;2.63;0.80;;;28.80;1.00;;;;;;5072011;28;20461;-57
2021/08/07 10:59:10;;;;;;;1.97;1.00;;;29.00;1.00;;;;;;5072637;28;20430;-57
2021/08/07 11:01:41;;;;;;;2.77;0.80;;;29.50;1.00;;;;;;5092030;28;20544;-58
2021/08/07 11:04:11;;;;;;;3.07;0.90;;;29.50;1.00;;;;;;5091848;28;20478;-57
2021/08/07 11:06:43;;;;;;;1.40;1.10;;;29.50;1.00;;;;;;5091793;28;20407;-56
2021/08/07 11:09:29;;;;;;;4.20;0.90;;;29.10;1.00;;;;;;5081302;28;20464;-57
2021/08/07 11:12:07;;;;;;;1.13;0.50;;;29.10;1.00;;;;;;5071686;28;20820;-57
2021/08/07 11:14:35;;;;;;;2.00;0.80;;;29.10;1.00;;;;;;5054009;28;20412;-57
2021/08/07 11:17:04;;;;;;;1.53;1.00;;;29.10;1.00;;;;;;5053703;28;20416;-57
2021/08/07 11:19:49;;;;;;;1.40;1.13;;;29.10;1.00;;;;;;5071838;28;20503;-57
2021/08/07 11:22:16;;;;;;;1.77;0.97;;;29.00;1.00;;;;;;5080463;28;20498;-56
2021/08/07 11:24:44;;;;;;;1.40;0.87;;;29.20;1.00;;;;;;5071545;28;20436;-57
2021/08/07 11:27:16;;;;;;;2.07;0.80;;;29.50;1.00;;;;;;5053425;28;20437;-58
2021/08/07 11:30:19;;;;;;;1.80;0.90;;;29.60;1.00;;;;;;5071368;28;20599;-58
2021/08/07 11:32:57;;;;;;;2.90;0.90;;;29.40;1.00;;;;;;5071790;28;20491;-56
2021/08/07 11:35:38;;;;;;;2.50;0.93;;;29.20;1.00;;;;;;5071110;28;20482;-58
2021/08/07 11:38:07;;;;;;;1.20;0.67;;;28.60;1.00;;;;;;5071704;28;20740;-57
2021/08/07 11:40:40;;;;;;;1.10;0.60;;;28.40;1.00;;;;;;5071454;28;20436;-58
2021/08/07 11:43:19;;;;;;;0.93;0.73;;;28.30;1.00;;;;;;5071805;28;20418;-58
2021/08/07 11:46:00;;;;;;;1.20;1.10;;;28.10;1.00;;;;;;5071590;28;20408;-57
2021/08/07 11:48:27;;;;;;;2.23;1.10;;;28.20;1.00;;;;;;5081546;28;20443;-57
2021/08/07 11:50:53;;;;;;;1.27;0.90;;;28.30;1.00;;;;;;5091635;28;20403;-57
2021/08/07 11:53:21;;;;;;;1.43;0.67;;;28.50;1.00;;;;;;5081092;28;20509;-56
2021/08/07 11:55:58;;;;;;;1.63;1.10;;;29.10;1.00;;;;;;5053612;28;20518;-58
2021/08/07 11:58:24;;;;;;;2.00;1.13;;;29.40;1.00;;;;;;5070825;28;20938;-58
2021/08/07 12:00:50;;;;;;;1.87;0.90;;;29.60;1.00;;;;;;5071170;28;20898;-58
2021/08/07 12:03:16;;;;;;;1.73;0.80;;;29.50;1.00;;;;;;5071273;28;20429;-57
2021/08/07 12:05:56;;;;;;;1.63;1.00;;;29.30;1.00;;;;;;5071446;28;20430;-58
2021/08/07 12:08:23;;;;;;;1.67;1.00;;;29.20;1.00;;;;;;5071176;28;20206;-59
2021/08/07 12:10:58;;;;;;;2.13;0.93;;;28.80;1.00;;;;;;5070675;28;20420;-58
2021/08/07 12:13:37;;;;;;;1.20;1.10;;;28.70;1.00;;;;;;5069043;28;20441;-57
2021/08/07 12:16:18;;;;;;;2.20;1.23;;;28.90;1.00;;;;;;5071551;28;20470;-56
2021/08/07 12:18:51;;;;;;;1.43;1.00;;;29.20;1.00;;;;;;5078528;28;20495;-57
2021/08/07 12:21:22;;;;;;;1.37;0.90;;;29.60;1.00;;;;;;5090823;28;20445;-56
2021/08/07 12:23:51;;;;;;;1.80;1.20;;;29.90;1.00;;;;;;5075260;28;20438;-58
2021/08/07 12:26:19;;;;;;;1.30;1.20;;;30.00;1.00;;;;;;5075278;28;20412;-57
2021/08/07 12:28:45;;;;;;;1.30;0.90;;;30.10;1.00;;;;;;5074830;28;20436;-58
2021/08/07 12:31:11;;;;;;;1.23;0.93;;;30.10;1.00;;;;;;5075426;28;20424;-57
2021/08/07 12:33:40;;;;;;;1.90;1.37;;;29.90;1.00;;;;;;5075181;28;20507;-58
2021/08/07 12:36:14;;;;;;;1.37;1.13;;;29.70;1.00;;;;;;5074889;28;20263;-59
2021/08/07 12:38:43;;;;;;;1.20;1.10;;;29.50;1.00;;;;;;5074974;28;20431;-58
2021/08/07 12:41:09;;;;;;;2.00;1.40;;;29.10;1.00;;;;;;5080439;28;20502;-59
2021/08/07 12:43:35;;;;;;;1.40;1.23;;;29.10;1.00;;;;;;5077125;28;20494;-57
2021/08/07 12:46:04;;;;;;;1.27;1.03;;;29.20;1.00;;;;;;5076956;28;20436;-56
2021/08/07 12:48:48;;;;;;;1.23;1.10;;;29.30;1.00;;;;;;5076290;28;20452;-57
2021/08/07 12:51:25;;;;;;;1.20;1.00;;;29.30;1.00;;;;;;5077375;28;20956;-58
2021/08/07 12:53:51;;;;;;;2.60;1.43;;;29.50;1.00;;;;;;5094991;28;20433;-58
2021/08/07 12:56:17;;;;;;;1.30;1.00;;;29.70;1.00;;;;;;5094868;28;20432;-57
2021/08/07 12:59:06;;;;;;;1.50;1.03;;;29.70;1.00;;;;;;5094736;28;20407;-57
2021/08/07 13:01:37;;;;;;;2.70;1.20;;;29.60;1.00;;;;;;5095011;28;20752;-56